SBPA/POA METAR and TAF weather

Enter ICAO airport designator
Station Type Date Time Source
SBPA METAR 2022/08/13 12:00 UTC NOAA

SBPA 131200Z 09004KT CAVOK 17/12 Q1021


Station Type Date Time Source
SBPA Decoded METAR 2022/08/13 12:00 UTC NOAA

Porto Alegre Aero-Porto , Brazil (SBPA) 30-00S 051-11W 3M
Aug 13, 2022 - 08:00 AM EDT / 2022.08.13 1200 UTC
Wind: from the E (090 degrees) at 5 MPH (4 KT):0
Visibility: greater than 7 mile(s):0
Temperature: 62 F (17 C)
Dew Point: 53 F (12 C)
Relative Humidity: 72%
Pressure (altimeter): 30.15 in. Hg (1021 hPa)
ob: SBPA 131200Z 09004KT CAVOK 17/12 Q1021
cycle: 12

Station Type Date Time Source
SBPA TAF 2022/08/13 12:38 UTC NOAA

TAF SBPA 130900Z 1312/1412 03007KT CAVOK TX22/1317Z TN11/1408Z
BECMG 1315/1317 11005KT PROB40 1407/1411 2000 BR BKN004
RMK PEW

Example: see airport list